sensor_id;sensor_type;location;lat;lon;timestamp;P1;durP1;ratioP1;P2;durP2;ratioP2
7845;SDS011;3968;51.424;6.788;2023-01-16T00:00:28;5.83;;;2.23;;
7845;SDS011;3968;51.424;6.788;2023-01-16T00:02:54;6.50;;;1.90;;
7845;SDS011;3968;51.424;6.788;2023-01-16T00:05:19;4.93;;;2.00;;
7845;SDS011;3968;51.424;6.788;2023-01-16T00:07:45;6.93;;;2.23;;
7845;SDS011;3968;51.424;6.788;2023-01-16T00:10:11;2.60;;;1.57;;
7845;SDS011;3968;51.424;6.788;2023-01-16T00:12:37;3.17;;;1.70;;
7845;SDS011;3968;51.424;6.788;2023-01-16T00:15:02;3.53;;;1.63;;
7845;SDS011;3968;51.424;6.788;2023-01-16T00:17:28;3.83;;;1.50;;
7845;SDS011;3968;51.424;6.788;2023-01-16T00:19:54;2.70;;;1.30;;
7845;SDS011;3968;51.424;6.788;2023-01-16T00:22:19;5.20;;;1.70;;
7845;SDS011;3968;51.424;6.788;2023-01-16T00:24:45;5.93;;;1.90;;
7845;SDS011;3968;51.424;6.788;2023-01-16T00:27:11;3.60;;;1.70;;
7845;SDS011;3968;51.424;6.788;2023-01-16T00:29:36;3.43;;;1.83;;
7845;SDS011;3968;51.424;6.788;2023-01-16T00:32:02;4.33;;;1.30;;
7845;SDS011;3968;51.424;6.788;2023-01-16T00:34:27;3.13;;;1.43;;
7845;SDS011;3968;51.424;6.788;2023-01-16T00:36:53;3.40;;;1.70;;
7845;SDS011;3968;51.424;6.788;2023-01-16T00:39:19;3.60;;;1.40;;
7845;SDS011;3968;51.424;6.788;2023-01-16T00:41:44;4.33;;;1.53;;
7845;SDS011;3968;51.424;6.788;2023-01-16T00:44:10;6.93;;;1.87;;
7845;SDS011;3968;51.424;6.788;2023-01-16T00:46:36;4.13;;;1.77;;
7845;SDS011;3968;51.424;6.788;2023-01-16T00:49:01;3.83;;;2.13;;
7845;SDS011;3968;51.424;6.788;2023-01-16T00:51:27;3.83;;;1.70;;
7845;SDS011;3968;51.424;6.788;2023-01-16T00:53:52;4.80;;;1.50;;
7845;SDS011;3968;51.424;6.788;2023-01-16T00:56:18;7.37;;;1.90;;
7845;SDS011;3968;51.424;6.788;2023-01-16T00:58:43;3.37;;;1.60;;
7845;SDS011;3968;51.424;6.788;2023-01-16T01:01:09;5.60;;;1.87;;
7845;SDS011;3968;51.424;6.788;2023-01-16T01:03:35;3.50;;;1.70;;
7845;SDS011;3968;51.424;6.788;2023-01-16T01:06:04;4.97;;;1.43;;
7845;SDS011;3968;51.424;6.788;2023-01-16T01:08:33;4.23;;;1.67;;
7845;SDS011;3968;51.424;6.788;2023-01-16T01:11:05;6.13;;;1.70;;
7845;SDS011;3968;51.424;6.788;2023-01-16T01:13:32;3.17;;;1.53;;
7845;SDS011;3968;51.424;6.788;2023-01-16T01:15:58;3.77;;;1.90;;
7845;SDS011;3968;51.424;6.788;2023-01-16T01:18:23;4.20;;;1.70;;
7845;SDS011;3968;51.424;6.788;2023-01-16T01:20:49;4.47;;;1.97;;
7845;SDS011;3968;51.424;6.788;2023-01-16T01:23:15;3.10;;;1.70;;
7845;SDS011;3968;51.424;6.788;2023-01-16T01:25:40;4.70;;;1.47;;
7845;SDS011;3968;51.424;6.788;2023-01-16T01:28:06;4.47;;;2.10;;
7845;SDS011;3968;51.424;6.788;2023-01-16T01:30:31;2.37;;;1.60;;
7845;SDS011;3968;51.424;6.788;2023-01-16T01:32:57;2.27;;;1.60;;
7845;SDS011;3968;51.424;6.788;2023-01-16T01:35:23;3.77;;;1.73;;
7845;SDS011;3968;51.424;6.788;2023-01-16T01:37:49;3.90;;;1.77;;
7845;SDS011;3968;51.424;6.788;2023-01-16T01:40:15;1.60;;;1.07;;
7845;SDS011;3968;51.424;6.788;2023-01-16T01:42:41;2.17;;;1.50;;
7845;SDS011;3968;51.424;6.788;2023-01-16T01:47:51;5.97;;;1.90;;
7845;SDS011;3968;51.424;6.788;2023-01-16T01:50:30;4.90;;;1.73;;
7845;SDS011;3968;51.424;6.788;2023-01-16T01:53:11;3.93;;;1.73;;
7845;SDS011;3968;51.424;6.788;2023-01-16T01:55:45;3.43;;;1.73;;
7845;SDS011;3968;51.424;6.788;2023-01-16T01:58:13;3.10;;;1.57;;
7845;SDS011;3968;51.424;6.788;2023-01-16T02:00:44;4.53;;;1.70;;
7845;SDS011;3968;51.424;6.788;2023-01-16T02:03:11;4.87;;;1.63;;
7845;SDS011;3968;51.424;6.788;2023-01-16T02:05:44;3.23;;;1.57;;
7845;SDS011;3968;51.424;6.788;2023-01-16T02:08:14;4.87;;;1.80;;
7845;SDS011;3968;51.424;6.788;2023-01-16T02:10:43;2.20;;;1.43;;
7845;SDS011;3968;51.424;6.788;2023-01-16T02:13:10;3.30;;;1.57;;
7845;SDS011;3968;51.424;6.788;2023-01-16T02:15:36;4.10;;;1.80;;
7845;SDS011;3968;51.424;6.788;2023-01-16T02:18:23;2.00;;;1.37;;
7845;SDS011;3968;51.424;6.788;2023-01-16T02:26:42;1.80;;;1.30;;
7845;SDS011;3968;51.424;6.788;2023-01-16T02:32:22;3.70;;;1.60;;
7845;SDS011;3968;51.424;6.788;2023-01-16T02:35:18;4.30;;;1.43;;
7845;SDS011;3968;51.424;6.788;2023-01-16T02:38:10;4.20;;;1.57;;
7845;SDS011;3968;51.424;6.788;2023-01-16T02:41:02;1.97;;;1.33;;
7845;SDS011;3968;51.424;6.788;2023-01-16T02:46:56;4.50;;;1.50;;
7845;SDS011;3968;51.424;6.788;2023-01-16T02:49:44;6.00;;;1.43;;
7845;SDS011;3968;51.424;6.788;2023-01-16T02:52:38;4.00;;;1.40;;
7845;SDS011;3968;51.424;6.788;2023-01-16T02:55:37;2.70;;;1.77;;
7845;SDS011;3968;51.424;6.788;2023-01-16T02:58:04;2.27;;;1.47;;
7845;SDS011;3968;51.424;6.788;2023-01-16T03:00:31;5.17;;;1.40;;
7845;SDS011;3968;51.424;6.788;2023-01-16T03:02:59;3.27;;;1.30;;
7845;SDS011;3968;51.424;6.788;2023-01-16T03:05:25;3.40;;;1.50;;
7845;SDS011;3968;51.424;6.788;2023-01-16T03:21:40;4.50;;;1.60;;
7845;SDS011;3968;51.424;6.788;2023-01-16T03:26:59;4.70;;;1.50;;
7845;SDS011;3968;51.424;6.788;2023-01-16T03:29:46;1.67;;;1.30;;
7845;SDS011;3968;51.424;6.788;2023-01-16T03:32:28;2.47;;;1.50;;
7845;SDS011;3968;51.424;6.788;2023-01-16T03:37:33;4.30;;;1.40;;
7845;SDS011;3968;51.424;6.788;2023-01-16T03:40:06;3.37;;;1.40;;
7845;SDS011;3968;51.424;6.788;2023-01-16T03:42:38;4.33;;;1.30;;
7845;SDS011;3968;51.424;6.788;2023-01-16T03:45:20;2.20;;;1.37;;
7845;SDS011;3968;51.424;6.788;2023-01-16T03:47:52;3.03;;;1.27;;
7845;SDS011;3968;51.424;6.788;2023-01-16T03:50:29;1.63;;;1.27;;
7845;SDS011;3968;51.424;6.788;2023-01-16T03:52:57;1.27;;;1.17;;
7845;SDS011;3968;51.424;6.788;2023-01-16T03:55:30;1.60;;;1.10;;
7845;SDS011;3968;51.424;6.788;2023-01-16T03:58:05;3.37;;;1.20;;
7845;SDS011;3968;51.424;6.788;2023-01-16T04:01:06;1.37;;;1.03;;
7845;SDS011;3968;51.424;6.788;2023-01-16T04:06:46;1.53;;;1.10;;
7845;SDS011;3968;51.424;6.788;2023-01-16T04:09:38;3.00;;;1.10;;
7845;SDS011;3968;51.424;6.788;2023-01-16T04:12:27;3.60;;;1.03;;
7845;SDS011;3968;51.424;6.788;2023-01-16T04:14:57;1.90;;;1.40;;
7845;SDS011;3968;51.424;6.788;2023-01-16T04:17:26;1.53;;;0.83;;
7845;SDS011;3968;51.424;6.788;2023-01-16T04:19:53;2.33;;;1.00;;
7845;SDS011;3968;51.424;6.788;2023-01-16T04:22:20;1.00;;;1.00;;
7845;SDS011;3968;51.424;6.788;2023-01-16T04:24:48;3.97;;;1.03;;
7845;SDS011;3968;51.424;6.788;2023-01-16T04:27:16;1.27;;;1.00;;
7845;SDS011;3968;51.424;6.788;2023-01-16T04:29:42;1.60;;;1.10;;
7845;SDS011;3968;51.424;6.788;2023-01-16T04:32:08;2.20;;;1.10;;
7845;SDS011;3968;51.424;6.788;2023-01-16T04:34:34;1.40;;;1.20;;
7845;SDS011;3968;51.424;6.788;2023-01-16T04:36:59;1.80;;;1.03;;
7845;SDS011;3968;51.424;6.788;2023-01-16T04:39:25;1.30;;;1.20;;
7845;SDS011;3968;51.424;6.788;2023-01-16T04:41:50;2.53;;;1.10;;
7845;SDS011;3968;51.424;6.788;2023-01-16T04:44:16;1.53;;;1.10;;
7845;SDS011;3968;51.424;6.788;2023-01-16T04:46:43;4.33;;;1.20;;
7845;SDS011;3968;51.424;6.788;2023-01-16T04:49:08;2.13;;;0.90;;
7845;SDS011;3968;51.424;6.788;2023-01-16T04:51:35;0.90;;;0.83;;
7845;SDS011;3968;51.424;6.788;2023-01-16T04:54:02;2.93;;;1.20;;
7845;SDS011;3968;51.424;6.788;2023-01-16T04:56:31;3.57;;;1.27;;
7845;SDS011;3968;51.424;6.788;2023-01-16T04:58:57;2.37;;;1.20;;
7845;SDS011;3968;51.424;6.788;2023-01-16T05:01:22;3.77;;;1.47;;
7845;SDS011;3968;51.424;6.788;2023-01-16T05:03:48;3.73;;;1.20;;
7845;SDS011;3968;51.424;6.788;2023-01-16T05:06:14;1.37;;;1.17;;
7845;SDS011;3968;51.424;6.788;2023-01-16T05:08:39;2.70;;;1.40;;
7845;SDS011;3968;51.424;6.788;2023-01-16T05:11:05;2.97;;;1.30;;
7845;SDS011;3968;51.424;6.788;2023-01-16T05:13:31;1.43;;;1.20;;
7845;SDS011;3968;51.424;6.788;2023-01-16T05:15:56;1.80;;;1.13;;
7845;SDS011;3968;51.424;6.788;2023-01-16T05:18:22;2.63;;;1.37;;
7845;SDS011;3968;51.424;6.788;2023-01-16T05:20:49;2.10;;;1.10;;
7845;SDS011;3968;51.424;6.788;2023-01-16T05:23:14;3.27;;;1.20;;
7845;SDS011;3968;51.424;6.788;2023-01-16T05:25:40;1.30;;;1.20;;
7845;SDS011;3968;51.424;6.788;2023-01-16T05:28:06;2.43;;;1.10;;
7845;SDS011;3968;51.424;6.788;2023-01-16T05:30:32;1.73;;;1.30;;
7845;SDS011;3968;51.424;6.788;2023-01-16T05:32:57;4.53;;;1.40;;
7845;SDS011;3968;51.424;6.788;2023-01-16T05:35:23;1.87;;;1.20;;
7845;SDS011;3968;51.424;6.788;2023-01-16T05:37:49;4.10;;;1.50;;
7845;SDS011;3968;51.424;6.788;2023-01-16T05:40:15;2.83;;;1.13;;
7845;SDS011;3968;51.424;6.788;2023-01-16T05:42:44;2.33;;;1.33;;
7845;SDS011;3968;51.424;6.788;2023-01-16T05:45:11;2.53;;;1.50;;
7845;SDS011;3968;51.424;6.788;2023-01-16T05:47:36;2.37;;;1.17;;
7845;SDS011;3968;51.424;6.788;2023-01-16T05:50:02;3.93;;;1.50;;
7845;SDS011;3968;51.424;6.788;2023-01-16T05:52:28;1.80;;;1.20;;
7845;SDS011;3968;51.424;6.788;2023-01-16T05:54:54;2.83;;;1.23;;
7845;SDS011;3968;51.424;6.788;2023-01-16T05:57:20;2.60;;;1.30;;
7845;SDS011;3968;51.424;6.788;2023-01-16T05:59:50;3.23;;;1.20;;
7845;SDS011;3968;51.424;6.788;2023-01-16T06:02:16;2.20;;;1.27;;
7845;SDS011;3968;51.424;6.788;2023-01-16T06:04:43;4.93;;;1.63;;
7845;SDS011;3968;51.424;6.788;2023-01-16T06:07:08;1.47;;;1.20;;
7845;SDS011;3968;51.424;6.788;2023-01-16T06:09:34;3.00;;;1.60;;
7845;SDS011;3968;51.424;6.788;2023-01-16T06:11:59;2.47;;;1.33;;
7845;SDS011;3968;51.424;6.788;2023-01-16T06:14:25;2.37;;;1.33;;
7845;SDS011;3968;51.424;6.788;2023-01-16T06:16:50;3.30;;;1.70;;
7845;SDS011;3968;51.424;6.788;2023-01-16T06:19:16;2.03;;;1.20;;
7845;SDS011;3968;51.424;6.788;2023-01-16T06:21:42;1.47;;;1.10;;
7845;SDS011;3968;51.424;6.788;2023-01-16T06:24:08;4.57;;;1.40;;
7845;SDS011;3968;51.424;6.788;2023-01-16T06:26:34;2.00;;;1.20;;
7845;SDS011;3968;51.424;6.788;2023-01-16T06:28:59;1.73;;;1.37;;
7845;SDS011;3968;51.424;6.788;2023-01-16T06:31:25;5.47;;;1.63;;
7845;SDS011;3968;51.424;6.788;2023-01-16T06:33:50;1.63;;;1.23;;
7845;SDS011;3968;51.424;6.788;2023-01-16T06:36:16;3.63;;;1.30;;
7845;SDS011;3968;51.424;6.788;2023-01-16T06:38:42;4.47;;;1.40;;
7845;SDS011;3968;51.424;6.788;2023-01-16T06:41:07;3.60;;;1.40;;
7845;SDS011;3968;51.424;6.788;2023-01-16T06:43:33;2.90;;;1.33;;
7845;SDS011;3968;51.424;6.788;2023-01-16T06:45:59;2.43;;;1.93;;
7845;SDS011;3968;51.424;6.788;2023-01-16T06:48:24;2.13;;;1.10;;
7845;SDS011;3968;51.424;6.788;2023-01-16T06:50:51;1.60;;;1.00;;
7845;SDS011;3968;51.424;6.788;2023-01-16T06:53:18;1.77;;;1.30;;
7845;SDS011;3968;51.424;6.788;2023-01-16T06:55:43;2.23;;;1.03;;
7845;SDS011;3968;51.424;6.788;2023-01-16T06:58:09;1.37;;;1.13;;
7845;SDS011;3968;51.424;6.788;2023-01-16T07:00:35;3.17;;;1.30;;
7845;SDS011;3968;51.424;6.788;2023-01-16T07:03:02;4.87;;;1.27;;
7845;SDS011;3968;51.424;6.788;2023-01-16T07:05:29;2.60;;;1.30;;
7845;SDS011;3968;51.424;6.788;2023-01-16T07:07:55;1.23;;;1.03;;
7845;SDS011;3968;51.424;6.788;2023-01-16T07:10:21;1.70;;;1.30;;
7845;SDS011;3968;51.424;6.788;2023-01-16T07:12:48;1.43;;;1.10;;
7845;SDS011;3968;51.424;6.788;2023-01-16T07:15:15;4.00;;;1.37;;
7845;SDS011;3968;51.424;6.788;2023-01-16T07:17:59;1.47;;;1.27;;
7845;SDS011;3968;51.424;6.788;2023-01-16T07:20:52;2.27;;;1.40;;
7845;SDS011;3968;51.424;6.788;2023-01-16T07:23:38;3.97;;;1.60;;
7845;SDS011;3968;51.424;6.788;2023-01-16T07:26:07;1.73;;;1.17;;
7845;SDS011;3968;51.424;6.788;2023-01-16T07:28:35;2.77;;;1.00;;
7845;SDS011;3968;51.424;6.788;2023-01-16T07:31:01;2.47;;;1.27;;
7845;SDS011;3968;51.424;6.788;2023-01-16T07:33:29;2.87;;;1.13;;
7845;SDS011;3968;51.424;6.788;2023-01-16T07:35:55;2.43;;;1.43;;
7845;SDS011;3968;51.424;6.788;2023-01-16T07:38:21;2.17;;;1.23;;
7845;SDS011;3968;51.424;6.788;2023-01-16T07:40:46;2.80;;;1.30;;
7845;SDS011;3968;51.424;6.788;2023-01-16T07:43:12;2.27;;;1.37;;
7845;SDS011;3968;51.424;6.788;2023-01-16T07:45:38;1.47;;;1.37;;
7845;SDS011;3968;51.424;6.788;2023-01-16T07:48:04;8.13;;;5.47;;
7845;SDS011;3968;51.424;6.788;2023-01-16T07:50:30;3.83;;;1.70;;
7845;SDS011;3968;51.424;6.788;2023-01-16T07:52:56;2.53;;;1.60;;
7845;SDS011;3968;51.424;6.788;2023-01-16T07:55:22;8.50;;;1.83;;
7845;SDS011;3968;51.424;6.788;2023-01-16T07:57:48;2.17;;;1.50;;
7845;SDS011;3968;51.424;6.788;2023-01-16T08:00:13;1.97;;;1.73;;
7845;SDS011;3968;51.424;6.788;2023-01-16T08:02:40;2.43;;;1.80;;
7845;SDS011;3968;51.424;6.788;2023-01-16T08:05:06;5.33;;;1.97;;
7845;SDS011;3968;51.424;6.788;2023-01-16T08:07:33;2.30;;;1.47;;
7845;SDS011;3968;51.424;6.788;2023-01-16T08:09:58;5.10;;;1.87;;
7845;SDS011;3968;51.424;6.788;2023-01-16T08:12:24;4.47;;;1.70;;
7845;SDS011;3968;51.424;6.788;2023-01-16T08:14:49;5.20;;;2.30;;
7845;SDS011;3968;51.424;6.788;2023-01-16T08:17:15;2.27;;;1.73;;
7845;SDS011;3968;51.424;6.788;2023-01-16T08:19:41;3.07;;;2.10;;
7845;SDS011;3968;51.424;6.788;2023-01-16T08:22:06;5.33;;;2.80;;
7845;SDS011;3968;51.424;6.788;2023-01-16T08:24:32;4.27;;;2.00;;
7845;SDS011;3968;51.424;6.788;2023-01-16T08:26:58;7.17;;;2.70;;
7845;SDS011;3968;51.424;6.788;2023-01-16T08:29:23;6.10;;;1.80;;
7845;SDS011;3968;51.424;6.788;2023-01-16T08:31:49;5.13;;;2.07;;
7845;SDS011;3968;51.424;6.788;2023-01-16T08:34:15;3.23;;;1.83;;
7845;SDS011;3968;51.424;6.788;2023-01-16T08:36:41;4.13;;;2.00;;
7845;SDS011;3968;51.424;6.788;2023-01-16T08:39:10;4.43;;;2.30;;
7845;SDS011;3968;51.424;6.788;2023-01-16T08:41:36;2.57;;;1.70;;
7845;SDS011;3968;51.424;6.788;2023-01-16T08:44:21;2.60;;;1.70;;
7845;SDS011;3968;51.424;6.788;2023-01-16T08:47:08;5.40;;;2.03;;
7845;SDS011;3968;51.424;6.788;2023-01-16T08:49:56;2.60;;;1.43;;
7845;SDS011;3968;51.424;6.788;2023-01-16T08:52:40;3.67;;;1.70;;
7845;SDS011;3968;51.424;6.788;2023-01-16T08:55:07;2.00;;;1.40;;
7845;SDS011;3968;51.424;6.788;2023-01-16T08:57:33;3.63;;;1.53;;
7845;SDS011;3968;51.424;6.788;2023-01-16T08:59:58;5.73;;;1.50;;
7845;SDS011;3968;51.424;6.788;2023-01-16T09:02:25;4.67;;;1.67;;
7845;SDS011;3968;51.424;6.788;2023-01-16T09:04:52;8.83;;;1.73;;
7845;SDS011;3968;51.424;6.788;2023-01-16T09:07:19;2.93;;;1.70;;
7845;SDS011;3968;51.424;6.788;2023-01-16T09:09:46;4.53;;;1.60;;
7845;SDS011;3968;51.424;6.788;2023-01-16T09:12:12;3.73;;;1.90;;
7845;SDS011;3968;51.424;6.788;2023-01-16T09:14:56;4.13;;;1.70;;
7845;SDS011;3968;51.424;6.788;2023-01-16T09:17:23;3.60;;;1.50;;
7845;SDS011;3968;51.424;6.788;2023-01-16T09:19:50;5.33;;;1.80;;
7845;SDS011;3968;51.424;6.788;2023-01-16T09:22:16;2.83;;;1.53;;
7845;SDS011;3968;51.424;6.788;2023-01-16T09:24:42;4.30;;;1.60;;
7845;SDS011;3968;51.424;6.788;2023-01-16T09:27:09;2.47;;;1.20;;
7845;SDS011;3968;51.424;6.788;2023-01-16T09:29:37;3.87;;;1.50;;
7845;SDS011;3968;51.424;6.788;2023-01-16T09:32:03;3.27;;;1.50;;
7845;SDS011;3968;51.424;6.788;2023-01-16T09:34:33;3.40;;;1.50;;
7845;SDS011;3968;51.424;6.788;2023-01-16T09:37:00;5.07;;;1.53;;
7845;SDS011;3968;51.424;6.788;2023-01-16T09:39:26;2.77;;;1.37;;
7845;SDS011;3968;51.424;6.788;2023-01-16T09:44:48;2.50;;;1.43;;
7845;SDS011;3968;51.424;6.788;2023-01-16T09:47:16;4.43;;;1.67;;
7845;SDS011;3968;51.424;6.788;2023-01-16T09:49:45;1.93;;;1.20;;
7845;SDS011;3968;51.424;6.788;2023-01-16T09:52:28;4.27;;;1.57;;
7845;SDS011;3968;51.424;6.788;2023-01-16T09:55:19;1.70;;;1.00;;
7845;SDS011;3968;51.424;6.788;2023-01-16T09:58:10;1.80;;;1.37;;
7845;SDS011;3968;51.424;6.788;2023-01-16T10:00:57;1.97;;;1.30;;
7845;SDS011;3968;51.424;6.788;2023-01-16T10:03:24;2.33;;;1.30;;
7845;SDS011;3968;51.424;6.788;2023-01-16T10:06:24;2.67;;;1.30;;
7845;SDS011;3968;51.424;6.788;2023-01-16T10:08:59;1.33;;;1.20;;
7845;SDS011;3968;51.424;6.788;2023-01-16T10:11:44;3.17;;;1.50;;
7845;SDS011;3968;51.424;6.788;2023-01-16T10:16:57;2.07;;;1.40;;
7845;SDS011;3968;51.424;6.788;2023-01-16T10:25:29;1.73;;;1.17;;
7845;SDS011;3968;51.424;6.788;2023-01-16T10:31:26;2.70;;;1.10;;
7845;SDS011;3968;51.424;6.788;2023-01-16T10:36:42;1.37;;;1.20;;
7845;SDS011;3968;51.424;6.788;2023-01-16T10:39:12;1.97;;;0.93;;
7845;SDS011;3968;51.424;6.788;2023-01-16T10:41:44;2.23;;;1.20;;
7845;SDS011;3968;51.424;6.788;2023-01-16T10:44:32;1.37;;;1.10;;
7845;SDS011;3968;51.424;6.788;2023-01-16T10:47:21;2.30;;;1.27;;
7845;SDS011;3968;51.424;6.788;2023-01-16T10:50:07;1.30;;;1.20;;
7845;SDS011;3968;51.424;6.788;2023-01-16T10:52:33;1.97;;;1.30;;
7845;SDS011;3968;51.424;6.788;2023-01-16T10:55:00;1.23;;;1.13;;
7845;SDS011;3968;51.424;6.788;2023-01-16T10:57:26;2.50;;;1.20;;
7845;SDS011;3968;51.424;6.788;2023-01-16T11:00:14;1.73;;;1.20;;
7845;SDS011;3968;51.424;6.788;2023-01-16T11:02:53;1.20;;;1.10;;
7845;SDS011;3968;51.424;6.788;2023-01-16T11:05:42;1.20;;;1.10;;
7845;SDS011;3968;51.424;6.788;2023-01-16T11:08:12;1.47;;;1.10;;
7845;SDS011;3968;51.424;6.788;2023-01-16T11:10:41;3.20;;;1.60;;
7845;SDS011;3968;51.424;6.788;2023-01-16T11:13:12;1.50;;;1.10;;
7845;SDS011;3968;51.424;6.788;2023-01-16T11:16:03;2.33;;;1.10;;
7845;SDS011;3968;51.424;6.788;2023-01-16T11:18:57;2.80;;;1.10;;
7845;SDS011;3968;51.424;6.788;2023-01-16T11:24:14;1.53;;;1.30;;
7845;SDS011;3968;51.424;6.788;2023-01-16T11:26:45;1.43;;;1.00;;
7845;SDS011;3968;51.424;6.788;2023-01-16T11:29:17;1.53;;;1.10;;
7845;SDS011;3968;51.424;6.788;2023-01-16T11:34:43;1.20;;;0.90;;
7845;SDS011;3968;51.424;6.788;2023-01-16T11:37:11;1.60;;;1.23;;
7845;SDS011;3968;51.424;6.788;2023-01-16T11:39:39;2.60;;;1.20;;
7845;SDS011;3968;51.424;6.788;2023-01-16T11:42:11;2.93;;;1.10;;
7845;SDS011;3968;51.424;6.788;2023-01-16T11:44:56;1.57;;;1.40;;
7845;SDS011;3968;51.424;6.788;2023-01-16T11:47:43;1.80;;;1.30;;
7845;SDS011;3968;51.424;6.788;2023-01-16T11:50:33;1.13;;;1.03;;
7845;SDS011;3968;51.424;6.788;2023-01-16T11:53:04;1.57;;;1.07;;
7845;SDS011;3968;51.424;6.788;2023-01-16T11:55:33;3.13;;;1.10;;
7845;SDS011;3968;51.424;6.788;2023-01-16T12:01:15;1.07;;;0.93;;
7845;SDS011;3968;51.424;6.788;2023-01-16T12:04:24;1.03;;;1.03;;
7845;SDS011;3968;51.424;6.788;2023-01-16T12:07:23;1.23;;;0.93;;
7845;SDS011;3968;51.424;6.788;2023-01-16T12:15:16;1.23;;;1.10;;
7845;SDS011;3968;51.424;6.788;2023-01-16T12:17:55;6.93;;;1.20;;
7845;SDS011;3968;51.424;6.788;2023-01-16T12:20:28;1.80;;;1.00;;
7845;SDS011;3968;51.424;6.788;2023-01-16T12:33:53;2.73;;;1.93;;
7845;SDS011;3968;51.424;6.788;2023-01-16T12:42:42;2.47;;;1.23;;
7845;SDS011;3968;51.424;6.788;2023-01-16T12:45:44;1.20;;;1.10;;
7845;SDS011;3968;51.424;6.788;2023-01-16T12:50:47;2.17;;;1.93;;
7845;SDS011;3968;51.424;6.788;2023-01-16T12:59:13;3.60;;;2.80;;
7845;SDS011;3968;51.424;6.788;2023-01-16T13:01:41;1.87;;;1.70;;
7845;SDS011;3968;51.424;6.788;2023-01-16T13:06:56;1.70;;;1.30;;
7845;SDS011;3968;51.424;6.788;2023-01-16T13:12:46;2.03;;;1.20;;
7845;SDS011;3968;51.424;6.788;2023-01-16T13:15:35;1.23;;;1.07;;
7845;SDS011;3968;51.424;6.788;2023-01-16T13:20:40;3.17;;;1.20;;
7845;SDS011;3968;51.424;6.788;2023-01-16T13:23:14;1.23;;;0.90;;
7845;SDS011;3968;51.424;6.788;2023-01-16T13:26:09;3.63;;;1.73;;
7845;SDS011;3968;51.424;6.788;2023-01-16T13:28:41;2.50;;;2.00;;
7845;SDS011;3968;51.424;6.788;2023-01-16T13:31:42;3.43;;;2.00;;
7845;SDS011;3968;51.424;6.788;2023-01-16T13:36:59;3.53;;;1.63;;
7845;SDS011;3968;51.424;6.788;2023-01-16T13:39:44;2.60;;;1.40;;
7845;SDS011;3968;51.424;6.788;2023-01-16T13:42:27;1.87;;;1.30;;
7845;SDS011;3968;51.424;6.788;2023-01-16T13:44:57;1.87;;;1.70;;
7845;SDS011;3968;51.424;6.788;2023-01-16T13:47:49;1.83;;;1.40;;
7845;SDS011;3968;51.424;6.788;2023-01-16T13:53:03;1.83;;;1.30;;
7845;SDS011;3968;51.424;6.788;2023-01-16T13:55:33;1.63;;;1.33;;
7845;SDS011;3968;51.424;6.788;2023-01-16T13:58:09;2.40;;;1.40;;
7845;SDS011;3968;51.424;6.788;2023-01-16T14:00:40;2.10;;;1.00;;
7845;SDS011;3968;51.424;6.788;2023-01-16T14:08:51;2.20;;;1.53;;
7845;SDS011;3968;51.424;6.788;2023-01-16T14:17:11;3.60;;;1.70;;
7845;SDS011;3968;51.424;6.788;2023-01-16T14:20:32;5.30;;;2.20;;
7845;SDS011;3968;51.424;6.788;2023-01-16T14:22:39;1.83;;;1.73;;
7845;SDS011;3968;51.424;6.788;2023-01-16T14:25:25;2.53;;;1.53;;
7845;SDS011;3968;51.424;6.788;2023-01-16T14:27:53;7.00;;;3.30;;
7845;SDS011;3968;51.424;6.788;2023-01-16T14:30:31;4.17;;;1.63;;
7845;SDS011;3968;51.424;6.788;2023-01-16T14:32:58;1.47;;;1.00;;
7845;SDS011;3968;51.424;6.788;2023-01-16T14:35:29;1.10;;;1.00;;
7845;SDS011;3968;51.424;6.788;2023-01-16T14:38:05;1.63;;;1.40;;
7845;SDS011;3968;51.424;6.788;2023-01-16T14:40:38;1.73;;;1.50;;
7845;SDS011;3968;51.424;6.788;2023-01-16T14:55:52;1.57;;;1.47;;
7845;SDS011;3968;51.424;6.788;2023-01-16T15:01:44;1.50;;;1.40;;
7845;SDS011;3968;51.424;6.788;2023-01-16T15:04:41;1.63;;;1.37;;
7845;SDS011;3968;51.424;6.788;2023-01-16T15:07:17;2.33;;;1.37;;
7845;SDS011;3968;51.424;6.788;2023-01-16T15:09:51;1.83;;;1.40;;
7845;SDS011;3968;51.424;6.788;2023-01-16T15:12:18;1.60;;;1.40;;
7845;SDS011;3968;51.424;6.788;2023-01-16T15:14:51;2.17;;;1.10;;
7845;SDS011;3968;51.424;6.788;2023-01-16T15:20:28;2.00;;;1.80;;
7845;SDS011;3968;51.424;6.788;2023-01-16T15:25:54;1.57;;;1.30;;
7845;SDS011;3968;51.424;6.788;2023-01-16T15:31:42;1.30;;;1.20;;
7845;SDS011;3968;51.424;6.788;2023-01-16T15:36:40;1.30;;;1.20;;
7845;SDS011;3968;51.424;6.788;2023-01-16T15:39:23;2.80;;;1.60;;
7845;SDS011;3968;51.424;6.788;2023-01-16T15:42:07;2.63;;;1.10;;
7845;SDS011;3968;51.424;6.788;2023-01-16T15:44:59;1.20;;;1.10;;
7845;SDS011;3968;51.424;6.788;2023-01-16T15:50:50;7.90;;;4.33;;
7845;SDS011;3968;51.424;6.788;2023-01-16T15:53:40;14.33;;;9.30;;
7845;SDS011;3968;51.424;6.788;2023-01-16T15:56:20;18.80;;;11.60;;
7845;SDS011;3968;51.424;6.788;2023-01-16T15:58:52;20.10;;;12.30;;
7845;SDS011;3968;51.424;6.788;2023-01-16T16:01:25;13.53;;;8.00;;
7845;SDS011;3968;51.424;6.788;2023-01-16T16:03:52;6.50;;;4.17;;
7845;SDS011;3968;51.424;6.788;2023-01-16T16:06:19;2.67;;;2.30;;
7845;SDS011;3968;51.424;6.788;2023-01-16T16:08:46;2.00;;;1.80;;
7845;SDS011;3968;51.424;6.788;2023-01-16T16:11:21;1.70;;;1.30;;
7845;SDS011;3968;51.424;6.788;2023-01-16T16:14:13;1.70;;;1.40;;
7845;SDS011;3968;51.424;6.788;2023-01-16T16:16:59;1.93;;;1.43;;
7845;SDS011;3968;51.424;6.788;2023-01-16T16:19:48;1.80;;;1.27;;
7845;SDS011;3968;51.424;6.788;2023-01-16T16:22:16;3.13;;;1.20;;
7845;SDS011;3968;51.424;6.788;2023-01-16T16:25:08;2.00;;;1.23;;
7845;SDS011;3968;51.424;6.788;2023-01-16T16:27:45;2.47;;;1.43;;
7845;SDS011;3968;51.424;6.788;2023-01-16T16:30:19;1.40;;;1.30;;
7845;SDS011;3968;51.424;6.788;2023-01-16T16:32:49;1.80;;;1.50;;
7845;SDS011;3968;51.424;6.788;2023-01-16T16:37:53;1.40;;;1.30;;
7845;SDS011;3968;51.424;6.788;2023-01-16T16:40:19;3.03;;;1.40;;
7845;SDS011;3968;51.424;6.788;2023-01-16T16:47:42;1.67;;;1.40;;
7845;SDS011;3968;51.424;6.788;2023-01-16T16:52:46;1.73;;;1.40;;
7845;SDS011;3968;51.424;6.788;2023-01-16T16:55:27;1.90;;;1.70;;
7845;SDS011;3968;51.424;6.788;2023-01-16T16:57:55;1.50;;;1.40;;
7845;SDS011;3968;51.424;6.788;2023-01-16T17:00:25;1.93;;;1.37;;
7845;SDS011;3968;51.424;6.788;2023-01-16T17:02:57;2.90;;;1.90;;
7845;SDS011;3968;51.424;6.788;2023-01-16T17:05:30;2.27;;;1.70;;
7845;SDS011;3968;51.424;6.788;2023-01-16T17:07:56;2.37;;;1.47;;
7845;SDS011;3968;51.424;6.788;2023-01-16T17:10:22;1.87;;;1.20;;
7845;SDS011;3968;51.424;6.788;2023-01-16T17:12:48;1.33;;;1.23;;
7845;SDS011;3968;51.424;6.788;2023-01-16T17:15:14;2.60;;;1.57;;
7845;SDS011;3968;51.424;6.788;2023-01-16T17:17:40;1.83;;;1.70;;
7845;SDS011;3968;51.424;6.788;2023-01-16T17:20:16;1.70;;;1.60;;
7845;SDS011;3968;51.424;6.788;2023-01-16T17:22:44;1.90;;;1.60;;
7845;SDS011;3968;51.424;6.788;2023-01-16T17:25:13;1.77;;;1.33;;
7845;SDS011;3968;51.424;6.788;2023-01-16T17:28:05;2.67;;;1.93;;
7845;SDS011;3968;51.424;6.788;2023-01-16T17:30:31;2.43;;;1.77;;
7845;SDS011;3968;51.424;6.788;2023-01-16T17:32:59;3.00;;;2.13;;
7845;SDS011;3968;51.424;6.788;2023-01-16T17:35:34;2.33;;;1.53;;
7845;SDS011;3968;51.424;6.788;2023-01-16T17:38:10;2.17;;;1.80;;
7845;SDS011;3968;51.424;6.788;2023-01-16T17:40:37;3.33;;;2.10;;
7845;SDS011;3968;51.424;6.788;2023-01-16T17:43:03;4.23;;;2.27;;
7845;SDS011;3968;51.424;6.788;2023-01-16T17:45:48;3.93;;;3.00;;
7845;SDS011;3968;51.424;6.788;2023-01-16T17:48:23;3.50;;;3.00;;
7845;SDS011;3968;51.424;6.788;2023-01-16T17:50:50;3.07;;;2.77;;
7845;SDS011;3968;51.424;6.788;2023-01-16T17:53:18;3.20;;;2.70;;
7845;SDS011;3968;51.424;6.788;2023-01-16T17:55:45;3.53;;;2.93;;
7845;SDS011;3968;51.424;6.788;2023-01-16T17:58:16;3.50;;;3.20;;
7845;SDS011;3968;51.424;6.788;2023-01-16T18:01:12;4.70;;;3.00;;
7845;SDS011;3968;51.424;6.788;2023-01-16T18:03:38;5.73;;;2.97;;
7845;SDS011;3968;51.424;6.788;2023-01-16T18:06:04;3.57;;;2.63;;
7845;SDS011;3968;51.424;6.788;2023-01-16T18:08:32;5.67;;;3.10;;
7845;SDS011;3968;51.424;6.788;2023-01-16T18:10:58;4.13;;;3.47;;
7845;SDS011;3968;51.424;6.788;2023-01-16T18:13:45;4.70;;;3.80;;
7845;SDS011;3968;51.424;6.788;2023-01-16T18:16:29;4.17;;;3.73;;
7845;SDS011;3968;51.424;6.788;2023-01-16T18:19:13;4.70;;;4.20;;
7845;SDS011;3968;51.424;6.788;2023-01-16T18:21:39;5.40;;;4.33;;
7845;SDS011;3968;51.424;6.788;2023-01-16T18:24:23;7.23;;;4.43;;